Historyczne dane pomiarowe

Dodano dane terminowe – wersja testowa.

Dane z okresu 1951-2019

Wersja bazy: 1.34 [2019-03-16, lista zmian], aktualizacja planowana na 2019-04-15

Dane meteo z obszaru Polski uzyskane na podstawie danych udostępnionych przez Instytut Meteorologii i Gospodarki Wodnej – Państwowy Instytut Badawczy.

 

Wybierz Datę:    

       

TemperaturaWilgotnośćZachmurzenieWiatrCiśnienieWidzialnośćZjawiska
 Data    tng td wb rh cc ccl cl cm ch dir g1 g2 mslp ppp      
1999-07-04 00:00:00 14.9--- 14.2 14.596wxwxwx0wx--1014.8 992.7 0.0---wx
1999-07-04 01:00:00 14.4--- 13.7 14.096wxwxwx0wx--1014.5 992.4----wx
1999-07-04 02:00:00 14.1--- 14.1 14.1100wxwxwx0wx--1014.3 992.2----wx
1999-07-04 03:00:00 13.9--- 13.9 13.9100wxwxwx0wx--1014.3 992.1----wx
1999-07-04 04:00:00 16.5--- 14.5 15.388wxwxwx0wx--1014.2 992.2----wxw1
1999-07-04 05:00:00 18.7--- 16.5 17.387wxwxwx0wx--1014.0 992.2----wx
1999-07-04 06:00:00 20.8--- 16.4 18.076wxwxwx0wx--1013.5 991.9 0.0---wxw1
1999-07-04 07:00:00 22.3--- 16.6 18.670wxwxwx2wx--1013.7 992.2----wx
1999-07-04 08:00:00 23.3--- 18.0 19.872wxwxwx3wx--1013.6 992.2----wx
1999-07-04 09:00:00 24.2--- 16.5 19.262wxwxwx3wx--1013.1 991.7----wx
1999-07-04 10:00:00 24.6--- 17.0 19.663wxwxwx3wx--1012.8 991.5----wx
1999-07-04 11:00:00 26.2--- 15.9 19.553wxwxwx6wx--1012.6 991.4----wx
1999-07-04 12:00:00 26.0--- 15.8 19.453wxwxwxwx5wx--1012.3 991.1 0.0---wx
1999-07-04 13:00:00 25.9--- 15.9 19.454wxwxwxwx4wx--1012.1 990.9----wx
1999-07-04 14:00:00 27.6--- 16.3 20.250wxwxwx3wx--1011.8 990.7----wx
1999-07-04 15:00:00 27.4--- 16.4 20.251wxwxwx3wx--1011.7 990.6----wx
1999-07-04 16:00:00 27.2--- 16.7 20.353wxwxwx3wx--1011.7 990.6----wx
1999-07-04 17:00:00 27.3--- 17.0 20.553wxwxwx2wx--1011.5 990.4----wx
1999-07-04 18:00:00 26.0--- 17.6 20.460wxwxwxwx2wx--1011.6 990.4 0.0---wx
1999-07-04 19:00:00 25.0--- 17.8 20.264wxwxwxwx2wx--1011.9 990.6----wx
1999-07-04 20:00:00 21.9--- 18.9 19.983wxwxwxwx1wx--1012.9 991.4----wx
1999-07-04 21:00:00 21.4--- 18.7 19.685wxwxwxwx1wx--1012.9 991.3----wx
1999-07-04 22:00:00 19.4--- 17.7 18.390wxwxwxwx1wx--1013.5 991.8----wx
1999-07-04 23:00:00 19.0--- 17.5 18.091wxwxwxwx1wx--1013.9 992.1----wx

 

Źródłem pochodzenia danych jest Instytut Meteorologii i Gospodarki Wodnej – Państwowy Instytut Badawczy. Dane Instytutu Meteorologii i Gospodarki Wodnej – Państwowego Instytutu Badawczego zostały przetworzone.

Dane źródłowe można odnaleźć na stronie https://dane.imgw.pl